Helmsley, United Kingdom
Current Conditions -  °F | °C
As of 9:50 PM on Tuesday 21 Oct 2014 (Local Time) from EGXZ Reporting Station
Clear Clear  
Wind Chill:   Ceiling: Unl
Heat Index:   Visibility: 6mi
Dew Point:   Wind: 23mph
Humidity: 61%   Direction: 310°NW
Pressure: 29.94"   Gusts: NA
Location:  54.25°N, 1.06°W
Report Text: EGXZ 212050Z AUTO 31020KT 9999 NCD 07/00 Q1014
Loading
Personal Weather Stations






























Interactive Weather Map
Tropical Storm Tracking
New forecast layout! Learn more

10-Day Weather Forecast

Advertisements
Track Severe Weather on mobile